UAE671 EGCC-EHAM
Flight info
| Callsign | UAE671 |
|---|---|
| Flight time | 0h 43m |
| Altitude | 33000 |
| Route | DESIG L603 LAMSO |
| Aircraft | B77W/H-SDE1E2E3FGHIJ2J3J4J5M1RWXY/LB1D1 |
Departure
| Time | 2026-05-05 17:55 |
|---|---|
| Airport | Manchester Airport (EGCC) |
Arrival
| Time | 2026-05-05 18:38 |
|---|---|
| Airport | Amsterdam Airport Schiphol (EHAM) |
| Time | Latitude | Longitude | Altitude | Speed | Heading |
|---|---|---|---|---|---|
| 2026-05-05 17:31 | 53.35942 | -2.27533 | 274 ft | 0 kts | 94° |
| 2026-05-05 17:40 | 53.35943 | -2.27552 | 274 ft | 2 kts | 99° |
| 2026-05-05 17:40 | 53.35945 | -2.27577 | 274 ft | 2 kts | 96° |
| 2026-05-05 17:40 | 53.35947 | -2.27603 | 274 ft | 2 kts | 99° |
| 2026-05-05 17:41 | 53.35949 | -2.27619 | 274 ft | 1 kts | 132° |
| 2026-05-05 17:41 | 53.35957 | -2.27632 | 274 ft | 2 kts | 161° |
| 2026-05-05 17:41 | 53.35968 | -2.27636 | 274 ft | 2 kts | 188° |
| 2026-05-05 17:41 | 53.35983 | -2.27633 | 274 ft | 2 kts | 184° |
| 2026-05-05 17:42 | 53.35984 | -2.27633 | 274 ft | 0 kts | 184° |
| 2026-05-05 17:46 | 53.35983 | -2.27633 | 274 ft | 2 kts | 184° |
| 2026-05-05 17:46 | 53.35953 | -2.27637 | 274 ft | 6 kts | 184° |
| 2026-05-05 17:46 | 53.35882 | -2.27645 | 274 ft | 11 kts | 184° |
| 2026-05-05 17:47 | 53.35850 | -2.27649 | 274 ft | 6 kts | 185° |
| 2026-05-05 17:47 | 53.35804 | -2.27657 | 274 ft | 4 kts | 184° |
| 2026-05-05 17:47 | 53.35753 | -2.27642 | 274 ft | 7 kts | 162° |
| 2026-05-05 17:47 | 53.35716 | -2.27610 | 274 ft | 9 kts | 150° |
| 2026-05-05 17:48 | 53.35706 | -2.27601 | 274 ft | 1 kts | 151° |
| 2026-05-05 17:48 | 53.35674 | -2.27599 | 274 ft | 6 kts | 191° |
| 2026-05-05 17:48 | 53.35646 | -2.27623 | 274 ft | 7 kts | 212° |
| 2026-05-05 17:48 | 53.35571 | -2.27733 | 274 ft | 17 kts | 226° |
| 2026-05-05 17:49 | 53.35505 | -2.27841 | 274 ft | 12 kts | 224° |
| 2026-05-05 17:49 | 53.35414 | -2.27989 | 274 ft | 26 kts | 224° |
| 2026-05-05 17:49 | 53.35285 | -2.28205 | 274 ft | 20 kts | 227° |
| 2026-05-05 17:49 | 53.35217 | -2.28330 | 274 ft | 13 kts | 229° |
| 2026-05-05 17:50 | 53.35136 | -2.28484 | 274 ft | 21 kts | 229° |
| 2026-05-05 17:50 | 53.35021 | -2.28703 | 274 ft | 22 kts | 229° |
| 2026-05-05 17:50 | 53.34953 | -2.28833 | 274 ft | 14 kts | 229° |
| 2026-05-05 17:50 | 53.34870 | -2.28991 | 274 ft | 18 kts | 229° |
| 2026-05-05 17:51 | 53.34781 | -2.29161 | 274 ft | 17 kts | 229° |
| 2026-05-05 17:51 | 53.34714 | -2.29283 | 274 ft | 17 kts | 220° |
| 2026-05-05 17:51 | 53.34630 | -2.29330 | 274 ft | 5 kts | 173° |
| 2026-05-05 17:51 | 53.34614 | -2.29323 | 274 ft | 0 kts | 161° |
| 2026-05-05 17:52 | 53.34611 | -2.29321 | 274 ft | 2 kts | 158° |
| 2026-05-05 17:53 | 53.34571 | -2.29271 | 274 ft | 11 kts | 129° |
| 2026-05-05 17:53 | 53.34587 | -2.29120 | 274 ft | 17 kts | 54° |
| 2026-05-05 17:53 | 53.34663 | -2.28964 | 274 ft | 22 kts | 50° |
| 2026-05-05 17:53 | 53.34790 | -2.28708 | 274 ft | 34 kts | 51° |
| 2026-05-05 17:54 | 53.35047 | -2.28173 | 274 ft | 96 kts | 51° |
| 2026-05-05 17:54 | 53.35631 | -2.26965 | 275 ft | 167 kts | 51° |
| 2026-05-05 17:54 | 53.36480 | -2.25208 | 343 ft | 218 kts | 51° |
| 2026-05-05 17:54 | 53.37498 | -2.23102 | 769 ft | 236 kts | 51° |
| 2026-05-05 17:55 | 53.38529 | -2.20953 | 1132 ft | 250 kts | 51° |
| 2026-05-05 17:55 | 53.39590 | -2.18636 | 1384 ft | 249 kts | 52° |
| 2026-05-05 17:55 | 53.40687 | -2.16283 | 1575 ft | 264 kts | 51° |
| 2026-05-05 17:55 | 53.41803 | -2.13909 | 1818 ft | 257 kts | 51° |
| 2026-05-05 17:56 | 53.42935 | -2.11507 | 2076 ft | 262 kts | 51° |
| 2026-05-05 17:56 | 53.44049 | -2.09145 | 2321 ft | 262 kts | 51° |
| 2026-05-05 17:56 | 53.45198 | -2.06706 | 2577 ft | 263 kts | 51° |
| 2026-05-05 17:56 | 53.46333 | -2.04291 | 2827 ft | 264 kts | 51° |
| 2026-05-05 17:57 | 53.47439 | -2.01876 | 3123 ft | 263 kts | 52° |
| 2026-05-05 17:57 | 53.48546 | -1.99366 | 3507 ft | 267 kts | 53° |
| 2026-05-05 17:57 | 53.49622 | -1.96847 | 3879 ft | 266 kts | 54° |
| 2026-05-05 17:57 | 53.50680 | -1.94309 | 4253 ft | 269 kts | 54° |
| 2026-05-05 17:58 | 53.51620 | -1.91612 | 4605 ft | 272 kts | 66° |
| 2026-05-05 17:58 | 53.51986 | -1.88464 | 5002 ft | 276 kts | 85° |
| 2026-05-05 17:58 | 53.51897 | -1.85230 | 5387 ft | 279 kts | 96° |
| 2026-05-05 17:58 | 53.51546 | -1.82020 | 5765 ft | 280 kts | 102° |
| 2026-05-05 17:59 | 53.51052 | -1.78839 | 6142 ft | 282 kts | 105° |
| 2026-05-05 17:59 | 53.50496 | -1.75724 | 6513 ft | 283 kts | 106° |
| 2026-05-05 17:59 | 53.49900 | -1.72560 | 6904 ft | 284 kts | 107° |
| 2026-05-05 17:59 | 53.49293 | -1.69378 | 7413 ft | 286 kts | 107° |
| 2026-05-05 18:00 | 53.48667 | -1.66057 | 7933 ft | 288 kts | 106° |
| 2026-05-05 18:00 | 53.48103 | -1.63001 | 8409 ft | 291 kts | 106° |
| 2026-05-05 18:00 | 53.47511 | -1.59730 | 8911 ft | 293 kts | 105° |
| 2026-05-05 18:00 | 53.46919 | -1.56428 | 9415 ft | 296 kts | 105° |
| 2026-05-05 18:01 | 53.46329 | -1.53116 | 9915 ft | 298 kts | 105° |
| 2026-05-05 18:01 | 53.45732 | -1.49773 | 10415 ft | 301 kts | 105° |
| 2026-05-05 18:01 | 53.45124 | -1.46373 | 10919 ft | 304 kts | 106° |
| 2026-05-05 18:01 | 53.44514 | -1.42968 | 11420 ft | 307 kts | 106° |
| 2026-05-05 18:02 | 53.43903 | -1.39569 | 11915 ft | 310 kts | 106° |
| 2026-05-05 18:02 | 53.43279 | -1.36108 | 12415 ft | 313 kts | 106° |
| 2026-05-05 18:02 | 53.42642 | -1.32583 | 12919 ft | 315 kts | 106° |
| 2026-05-05 18:02 | 53.42004 | -1.29058 | 13420 ft | 318 kts | 106° |
| 2026-05-05 18:03 | 53.41359 | -1.25499 | 13920 ft | 321 kts | 106° |
| 2026-05-05 18:03 | 53.40703 | -1.21887 | 14423 ft | 324 kts | 107° |
| 2026-05-05 18:03 | 53.40045 | -1.18268 | 14923 ft | 327 kts | 107° |
| 2026-05-05 18:03 | 53.39376 | -1.14594 | 15426 ft | 330 kts | 107° |
| 2026-05-05 18:04 | 53.38701 | -1.10902 | 15928 ft | 333 kts | 107° |
| 2026-05-05 18:04 | 53.38020 | -1.07180 | 16428 ft | 336 kts | 107° |
| 2026-05-05 18:04 | 53.37338 | -1.03464 | 16924 ft | 339 kts | 107° |
| 2026-05-05 18:04 | 53.36643 | -0.99681 | 17425 ft | 344 kts | 107° |
| 2026-05-05 18:05 | 53.35919 | -0.95750 | 17938 ft | 364 kts | 107° |
| 2026-05-05 18:05 | 53.35147 | -0.91575 | 18454 ft | 387 kts | 108° |
| 2026-05-05 18:05 | 53.34334 | -0.87188 | 18966 ft | 399 kts | 108° |
| 2026-05-05 18:05 | 53.33507 | -0.82733 | 19469 ft | 404 kts | 108° |
| 2026-05-05 18:06 | 53.32667 | -0.78214 | 19972 ft | 409 kts | 108° |
| 2026-05-05 18:06 | 53.32392 | -0.76734 | 20136 ft | 411 kts | 108° |
| 2026-05-05 18:06 | 53.30951 | -0.69020 | 20978 ft | 418 kts | 108° |
| 2026-05-05 18:06 | 53.30090 | -0.64427 | 21473 ft | 422 kts | 108° |
| 2026-05-05 18:07 | 53.29204 | -0.59708 | 21977 ft | 428 kts | 108° |
| 2026-05-05 18:07 | 53.28296 | -0.54888 | 22484 ft | 444 kts | 108° |
| 2026-05-05 18:07 | 53.27347 | -0.49864 | 22994 ft | 459 kts | 108° |
| 2026-05-05 18:07 | 53.26375 | -0.44737 | 23500 ft | 468 kts | 108° |
| 2026-05-05 18:08 | 53.25387 | -0.39529 | 24003 ft | 473 kts | 108° |
| 2026-05-05 18:08 | 53.24383 | -0.34248 | 24508 ft | 478 kts | 108° |
| 2026-05-05 18:08 | 53.23386 | -0.29017 | 25002 ft | 483 kts | 108° |
| 2026-05-05 18:08 | 53.22350 | -0.23594 | 25510 ft | 487 kts | 108° |
| 2026-05-05 18:09 | 53.21327 | -0.18260 | 26006 ft | 491 kts | 108° |
| 2026-05-05 18:09 | 53.20279 | -0.12809 | 26508 ft | 495 kts | 108° |
| 2026-05-05 18:09 | 53.19221 | -0.07328 | 27010 ft | 499 kts | 109° |
| 2026-05-05 18:09 | 53.18151 | -0.01797 | 27512 ft | 503 kts | 109° |
| 2026-05-05 18:10 | 53.17071 | 0.03771 | 28014 ft | 507 kts | 109° |
| 2026-05-05 18:10 | 53.15983 | 0.09364 | 28514 ft | 511 kts | 109° |
| 2026-05-05 18:10 | 53.14879 | 0.15021 | 29017 ft | 514 kts | 109° |
| 2026-05-05 18:10 | 53.13768 | 0.20700 | 29518 ft | 518 kts | 109° |
| 2026-05-05 18:11 | 53.12647 | 0.26413 | 30018 ft | 522 kts | 109° |
| 2026-05-05 18:11 | 53.11524 | 0.32117 | 30514 ft | 526 kts | 109° |
| 2026-05-05 18:11 | 53.10381 | 0.37909 | 31015 ft | 529 kts | 109° |
| 2026-05-05 18:11 | 53.09220 | 0.43768 | 31518 ft | 533 kts | 109° |
| 2026-05-05 18:12 | 53.08053 | 0.49641 | 32020 ft | 537 kts | 109° |
| 2026-05-05 18:12 | 53.06875 | 0.55547 | 32520 ft | 542 kts | 109° |
| 2026-05-05 18:12 | 53.05678 | 0.61532 | 32920 ft | 549 kts | 109° |
| 2026-05-05 18:13 | 53.03230 | 0.73710 | 33006 ft | 561 kts | 109° |
| 2026-05-05 18:13 | 53.00762 | 0.85911 | 32997 ft | 561 kts | 109° |
| 2026-05-05 18:14 | 52.98317 | 0.98229 | 32996 ft | 562 kts | 107° |
| 2026-05-05 18:14 | 52.96373 | 1.10810 | 32997 ft | 563 kts | 103° |
| 2026-05-05 18:15 | 52.94774 | 1.23506 | 32996 ft | 564 kts | 102° |
| 2026-05-05 18:15 | 52.93314 | 1.36291 | 32996 ft | 564 kts | 101° |
| 2026-05-05 18:16 | 52.91906 | 1.48980 | 32996 ft | 564 kts | 101° |
| 2026-05-05 18:16 | 52.90481 | 1.61745 | 32996 ft | 564 kts | 101° |
| 2026-05-05 18:17 | 52.89025 | 1.74501 | 32996 ft | 564 kts | 101° |
| 2026-05-05 18:17 | 52.87536 | 1.87226 | 32996 ft | 564 kts | 101° |
| 2026-05-05 18:18 | 52.86018 | 1.99901 | 32700 ft | 567 kts | 102° |
| 2026-05-05 18:18 | 52.85235 | 2.06334 | 32344 ft | 567 kts | 102° |
| 2026-05-05 18:18 | 52.84451 | 2.12710 | 31972 ft | 564 kts | 102° |
| 2026-05-05 18:18 | 52.83666 | 2.19041 | 31598 ft | 561 kts | 102° |
| 2026-05-05 18:19 | 52.82876 | 2.25355 | 31222 ft | 559 kts | 102° |
| 2026-05-05 18:19 | 52.82085 | 2.31622 | 30847 ft | 556 kts | 102° |
| 2026-05-05 18:19 | 52.81294 | 2.37845 | 30472 ft | 552 kts | 102° |
| 2026-05-05 18:19 | 52.80502 | 2.44023 | 30097 ft | 549 kts | 102° |
| 2026-05-05 18:20 | 52.79719 | 2.50120 | 29726 ft | 546 kts | 102° |
| 2026-05-05 18:20 | 52.79187 | 2.54257 | 29472 ft | 544 kts | 102° |
| 2026-05-05 18:20 | 52.78149 | 2.62323 | 28975 ft | 540 kts | 102° |
| 2026-05-05 18:20 | 52.77368 | 2.68366 | 28599 ft | 537 kts | 102° |
| 2026-05-05 18:21 | 52.76588 | 2.74376 | 28223 ft | 533 kts | 102° |
| 2026-05-05 18:21 | 52.75810 | 2.80342 | 27848 ft | 530 kts | 103° |
| 2026-05-05 18:21 | 52.75035 | 2.86272 | 27472 ft | 527 kts | 103° |
| 2026-05-05 18:21 | 52.74261 | 2.92160 | 27097 ft | 524 kts | 103° |
| 2026-05-05 18:22 | 52.73351 | 2.97933 | 26721 ft | 520 kts | 108° |
| 2026-05-05 18:22 | 52.72106 | 3.03504 | 26350 ft | 516 kts | 113° |
| 2026-05-05 18:22 | 52.70609 | 3.08888 | 25979 ft | 512 kts | 117° |
| 2026-05-05 18:22 | 52.68951 | 3.14063 | 25587 ft | 509 kts | 120° |
| 2026-05-05 18:23 | 52.67207 | 3.19024 | 25091 ft | 507 kts | 122° |
| 2026-05-05 18:23 | 52.65364 | 3.23954 | 24551 ft | 502 kts | 123° |
| 2026-05-05 18:23 | 52.63515 | 3.28804 | 24002 ft | 498 kts | 122° |
| 2026-05-05 18:23 | 52.61873 | 3.33811 | 23455 ft | 496 kts | 117° |
| 2026-05-05 18:24 | 52.60470 | 3.38959 | 22851 ft | 493 kts | 113° |
| 2026-05-05 18:24 | 52.59311 | 3.44001 | 21997 ft | 435 kts | 110° |
| 2026-05-05 18:24 | 52.58437 | 3.48526 | 21194 ft | 404 kts | 107° |
| 2026-05-05 18:24 | 52.57704 | 3.52910 | 20434 ft | 394 kts | 105° |
| 2026-05-05 18:25 | 52.57062 | 3.57245 | 19684 ft | 388 kts | 103° |
| 2026-05-05 18:25 | 52.56867 | 3.58652 | 19439 ft | 386 kts | 103° |
| 2026-05-05 18:25 | 52.55965 | 3.65729 | 18190 ft | 375 kts | 101° |
| 2026-05-05 18:25 | 52.55479 | 3.69877 | 17392 ft | 370 kts | 101° |
| 2026-05-05 18:26 | 52.55159 | 3.72699 | 16733 ft | 369 kts | 100° |
| 2026-05-05 18:26 | 52.54910 | 3.74938 | 16228 ft | 365 kts | 100° |
| 2026-05-05 18:26 | 52.54479 | 3.78880 | 15372 ft | 356 kts | 99° |
| 2026-05-05 18:26 | 52.53851 | 3.84703 | 14085 ft | 348 kts | 99° |
| 2026-05-05 18:27 | 52.53429 | 3.88628 | 13199 ft | 342 kts | 99° |
| 2026-05-05 18:27 | 52.52953 | 3.92384 | 12333 ft | 336 kts | 103° |
| 2026-05-05 18:27 | 52.52304 | 3.96032 | 11461 ft | 331 kts | 107° |
| 2026-05-05 18:27 | 52.51551 | 3.99570 | 10587 ft | 325 kts | 109° |
| 2026-05-05 18:28 | 52.49912 | 4.06323 | 8833 ft | 304 kts | 112° |
| 2026-05-05 18:28 | 52.49109 | 4.09417 | 7956 ft | 290 kts | 112° |
| 2026-05-05 18:28 | 52.48296 | 4.12492 | 7146 ft | 306 kts | 112° |
| 2026-05-05 18:29 | 52.47432 | 4.15746 | 6786 ft | 305 kts | 112° |
| 2026-05-05 18:29 | 52.46670 | 4.18766 | 7113 ft | 286 kts | 111° |
| 2026-05-05 18:29 | 52.45921 | 4.21847 | 6941 ft | 287 kts | 110° |
| 2026-05-05 18:29 | 52.45212 | 4.24806 | 6997 ft | 276 kts | 110° |
| 2026-05-05 18:30 | 52.44521 | 4.27711 | 6996 ft | 269 kts | 110° |
| 2026-05-05 18:30 | 52.43854 | 4.30517 | 7014 ft | 262 kts | 110° |
| 2026-05-05 18:30 | 52.43189 | 4.33321 | 6916 ft | 265 kts | 110° |
| 2026-05-05 18:30 | 52.42390 | 4.36000 | 6721 ft | 261 kts | 124° |
| 2026-05-05 18:31 | 52.40985 | 4.37814 | 6559 ft | 256 kts | 154° |
| 2026-05-05 18:31 | 52.39319 | 4.38701 | 6445 ft | 249 kts | 166° |
| 2026-05-05 18:31 | 52.37672 | 4.39254 | 6320 ft | 246 kts | 170° |
| 2026-05-05 18:31 | 52.35962 | 4.39736 | 5910 ft | 246 kts | 171° |
| 2026-05-05 18:32 | 52.34319 | 4.40172 | 5534 ft | 239 kts | 171° |
| 2026-05-05 18:32 | 52.32668 | 4.40601 | 5149 ft | 235 kts | 171° |
| 2026-05-05 18:32 | 52.31048 | 4.41017 | 4666 ft | 236 kts | 171° |
| 2026-05-05 18:32 | 52.29493 | 4.41413 | 4535 ft | 220 kts | 171° |
| 2026-05-05 18:33 | 52.27985 | 4.41796 | 4562 ft | 224 kts | 171° |
| 2026-05-05 18:33 | 52.26441 | 4.42187 | 4510 ft | 222 kts | 171° |
| 2026-05-05 18:33 | 52.24902 | 4.42576 | 4392 ft | 227 kts | 171° |
| 2026-05-05 18:33 | 52.23378 | 4.43111 | 4162 ft | 225 kts | 164° |
| 2026-05-05 18:34 | 52.22140 | 4.44710 | 3935 ft | 234 kts | 129° |
| 2026-05-05 18:34 | 52.21613 | 4.47189 | 3818 ft | 236 kts | 100° |
| 2026-05-05 18:34 | 52.21455 | 4.49776 | 3600 ft | 215 kts | 93° |
| 2026-05-05 18:34 | 52.21396 | 4.52098 | 3342 ft | 203 kts | 91° |
| 2026-05-05 18:35 | 52.21657 | 4.54234 | 3128 ft | 190 kts | 73° |
| 2026-05-05 18:35 | 52.22196 | 4.56251 | 2742 ft | 192 kts | 63° |
| 2026-05-05 18:35 | 52.22834 | 4.58104 | 2335 ft | 187 kts | 59° |
| 2026-05-05 18:35 | 52.23512 | 4.59893 | 1868 ft | 182 kts | 57° |
| 2026-05-05 18:36 | 52.24195 | 4.61637 | 1377 ft | 180 kts | 57° |
| 2026-05-05 18:36 | 52.24858 | 4.63317 | 817 ft | 177 kts | 57° |
| 2026-05-05 18:36 | 52.25497 | 4.64942 | 551 ft | 168 kts | 57° |
| 2026-05-05 18:36 | 52.26145 | 4.66597 | 362 ft | 171 kts | 57° |
| 2026-05-05 18:37 | 52.26766 | 4.68191 | 408 ft | 169 kts | 57° |
| 2026-05-05 18:37 | 52.27407 | 4.69840 | 312 ft | 170 kts | 57° |
| 2026-05-05 18:37 | 52.28032 | 4.71452 | 222 ft | 170 kts | 57° |
| 2026-05-05 18:37 | 52.28642 | 4.73023 | 88 ft | 150 kts | 57° |
| 2026-05-05 18:38 | 52.29136 | 4.74299 | 7 ft | 111 kts | 58° |
| 2026-05-05 18:38 | 52.29392 | 4.74965 | 6 ft | 24 kts | 58° |
| 2026-05-05 18:38 | 52.29524 | 4.75319 | 7 ft | 57 kts | 59° |
| 2026-05-05 18:38 | 52.29716 | 4.75817 | 6 ft | 44 kts | 56° |
| 2026-05-05 18:39 | 52.29847 | 4.76160 | 6 ft | 28 kts | 58° |
| 2026-05-05 18:39 | 52.29950 | 4.76434 | 6 ft | 28 kts | 56° |
| 2026-05-05 18:39 | 52.30079 | 4.76602 | 6 ft | 19 kts | 24° |
| 2026-05-05 18:39 | 52.30136 | 4.76644 | 6 ft | 7 kts | 25° |
| 2026-05-05 18:40 | 52.30142 | 4.76649 | 6 ft | 0 kts | 25° |
| 2026-05-05 18:42 | 52.30146 | 4.76651 | 6 ft | 3 kts | 25° |
| 2026-05-05 18:43 | 52.30208 | 4.76699 | 6 ft | 16 kts | 25° |
| 2026-05-05 18:43 | 52.30282 | 4.76777 | 6 ft | 13 kts | 44° |
| 2026-05-05 18:43 | 52.30361 | 4.76951 | 6 ft | 27 kts | 58° |
| 2026-05-05 18:43 | 52.30436 | 4.77149 | 6 ft | 15 kts | 58° |
| 2026-05-05 18:44 | 52.30492 | 4.77292 | 6 ft | 14 kts | 57° |
| 2026-05-05 18:44 | 52.30552 | 4.77445 | 6 ft | 17 kts | 55° |
| 2026-05-05 18:44 | 52.30626 | 4.77569 | 6 ft | 15 kts | 35° |
| 2026-05-05 18:44 | 52.30707 | 4.77596 | 6 ft | 15 kts | 3° |
| 2026-05-05 18:45 | 52.30837 | 4.77607 | 6 ft | 20 kts | 3° |
| 2026-05-05 18:45 | 52.30988 | 4.77620 | 6 ft | 23 kts | 3° |
| 2026-05-05 18:45 | 52.31150 | 4.77635 | 6 ft | 20 kts | 3° |
| 2026-05-05 18:45 | 52.31251 | 4.77644 | 6 ft | 7 kts | 3° |
| 2026-05-05 18:46 | 52.31271 | 4.77646 | 6 ft | 4 kts | 2° |
| 2026-05-05 18:46 | 52.31345 | 4.77644 | 6 ft | 18 kts | 359° |
| 2026-05-05 18:46 | 52.31454 | 4.77621 | 6 ft | 13 kts | 338° |
| 2026-05-05 18:46 | 52.31506 | 4.77565 | 6 ft | 6 kts | 318° |
| 2026-05-05 18:47 | 52.31556 | 4.77464 | 6 ft | 19 kts | 300° |
| 2026-05-05 18:47 | 52.31580 | 4.77277 | 6 ft | 8 kts | 261° |
| 2026-05-05 18:47 | 52.31542 | 4.77223 | 6 ft | 8 kts | 200° |
| 2026-05-05 18:47 | 52.31497 | 4.77193 | 6 ft | 5 kts | 221° |
| 2026-05-05 18:48 | 52.31476 | 4.77104 | 6 ft | 15 kts | 262° |
| 2026-05-05 18:48 | 52.31469 | 4.76898 | 6 ft | 17 kts | 267° |
| 2026-05-05 18:48 | 52.31460 | 4.76719 | 6 ft | 12 kts | 254° |
| 2026-05-05 18:48 | 52.31437 | 4.76657 | 6 ft | 5 kts | 227° |
| 2026-05-05 18:49 | 52.31386 | 4.76577 | 6 ft | 13 kts | 223° |
| 2026-05-05 18:49 | 52.31311 | 4.76485 | 6 ft | 8 kts | 200° |
| 2026-05-05 18:49 | 52.31296 | 4.76486 | 6 ft | 1 kts | 169° |
| 2026-05-05 18:49 | 52.31285 | 4.76496 | 6 ft | 1 kts | 147° |
| 2026-05-05 18:50 | 52.31272 | 4.76535 | 6 ft | 6 kts | 113° |
| 2026-05-05 18:50 | 52.31260 | 4.76575 | 6 ft | 3 kts | 118° |
| 2026-05-05 18:50 | 52.31253 | 4.76594 | 6 ft | 3 kts | 119° |
| 2026-05-05 18:50 | 52.31252 | 4.76597 | 6 ft | 0 kts | 121° |